| Date | Time | Temp. (oF) | Dew Point (oF) | Rel. Hum. (%) | Press. (in.) | Wind Dir. | Wind Speed (mph) | Hourly Rainfall (in.) |
|
|---|---|---|---|---|---|---|---|---|---|
| 1 | 10/13 | 00:00 | 39 | 31 | 73 | 30.48 | N | 2 | 0.00 |
| 2 | 10/12 | 23:00 | 41 | 31 | 68 | 30.45 | S | 0 | 0.00 |
| 3 | 10/12 | 22:00 | 44 | 30 | 59 | 30.43 | NNE | 3 | 0.00 |
| 4 | 10/12 | 21:00 | 46 | 30 | 55 | 30.40 | NE | 2 | 0.00 |
| 5 | 10/12 | 20:00 | 48 | 30 | 50 | 30.38 | N | 5 | 0.00 |
| 6 | 10/12 | 19:00 | 51 | 31 | 47 | 30.34 | NNE | 5 | 0.00 |
| 7 | 10/12 | 18:00 | 54 | 30 | 41 | 30.30 | NNE | 7 | 0.00 |
| 8 | 10/12 | 17:00 | 57 | 32 | 39 | 30.27 | N | 8 | 0.00 |
| 9 | 10/12 | 16:00 | 56 | 34 | 44 | 30.26 | NW | 10 | 0.00 |
| 10 | 10/12 | 15:00 | 56 | 35 | 47 | 30.25 | WNW | 10 | 0.00 |
| 11 | 10/12 | 14:00 | 57 | 39 | 53 | 30.24 | N | 20 | 0.00 |
| 12 | 10/12 | 13:00 | 56 | 42 | 60 | 30.24 | WNW | 9 | 0.00 |
| 13 | 10/12 | 12:00 | 58 | 42 | 56 | 30.23 | W | 10 | 0.00 |
| 14 | 10/12 | 11:00 | 57 | 42 | 59 | 30.21 | N | 4 | 0.00 |
| 15 | 10/12 | 10:00 | 54 | 45 | 73 | 30.20 | SSW | 4 | 0.00 |
| 16 | 10/12 | 09:00 | 47 | 46 | 100 | 30.18 | WSW | 3 | 0.00 |
| 17 | 10/12 | 08:00 | 39 | 39 | 100 | 30.16 | SSE | 0 | 0.00 |
| 18 | 10/12 | 07:00 | 37 | 36 | 100 | 30.15 | N | 0 | 0.00 |
| 19 | 10/12 | 06:00 | 36 | 36 | 100 | 30.15 | S | 0 | 0.00 |
| 20 | 10/12 | 05:00 | 36 | 36 | 100 | 30.16 | S | 0 | 0.00 |
| 21 | 10/12 | 04:00 | 37 | 36 | 100 | 30.16 | SW | 0 | 0.00 |
| 22 | 10/12 | 03:00 | 39 | 39 | 100 | 30.17 | S | 0 | 0.00 |
| 23 | 10/12 | 02:00 | 40 | 40 | 100 | 30.18 | NE | 0 | 0.00 |
| 24 | 10/12 | 01:00 | 41 | 41 | 100 | 30.19 | NNE | 3 | 0.00 |